Time;durP1;ratioP1;P1;durP2;ratioP2;P2;SDS_P1;SDS_P2;PMS_P1;PMS_P2;Temp;Humidity;BMP_temperature;BMP_pressure;BME280_temperature;BME280_humidity;BME280_pressure;Samples;Min_cycle;Max_cycle;Signal;HPM_P1;HPM_P2
2023/01/11 00:01:36;;;;;;;9.00;8.60;;;;;;;-143.83;100.00;62900.06;5011237;28;20180;-61
2023/01/11 00:04:02;;;;;;;9.40;9.00;;;;;;;-143.83;100.00;62900.06;5015521;28;20040;-62
2023/01/11 00:06:28;;;;;;;9.10;8.70;;;;;;;-143.83;100.00;62900.06;5013528;28;20033;-61
2023/01/11 00:08:55;;;;;;;9.23;8.82;;;;;;;-143.83;100.00;62900.06;5016147;28;20036;-62
2023/01/11 00:11:20;;;;;;;9.20;8.80;;;;;;;-143.83;100.00;62900.06;5015931;28;20034;-62
2023/01/11 00:13:46;;;;;;;9.23;8.82;;;;;;;-143.83;100.00;62900.06;5009919;28;20052;-62
2023/01/11 00:16:12;;;;;;;9.25;8.85;;;;;;;-143.83;100.00;62900.06;5015295;28;20030;-62
2023/01/11 00:18:37;;;;;;;9.18;8.77;;;;;;;-143.83;100.00;62900.06;5013249;28;20029;-62
2023/01/11 00:21:04;;;;;;;9.20;8.80;;;;;;;-143.83;100.00;62900.06;5014951;28;20030;-62
2023/01/11 00:23:34;;;;;;;9.45;8.95;;;;;;;-143.83;100.00;62900.06;5014737;28;20084;-63
2023/01/11 00:26:09;;;;;;;9.50;9.07;;;;;;;-143.83;100.00;62900.06;5015616;28;20026;-61
2023/01/11 00:28:34;;;;;;;9.20;8.80;;;;;;;-143.83;100.00;62900.06;5014826;28;20018;-63
2023/01/11 00:31:01;;;;;;;9.63;9.15;;;;;;;-143.83;100.00;62900.06;5013848;28;20018;-62
2023/01/11 00:33:26;;;;;;;9.20;8.80;;;;;;;-143.83;100.00;62900.06;5014744;28;20026;-62
2023/01/11 00:35:52;;;;;;;9.20;8.80;;;;;;;-143.83;100.00;62900.06;5012840;28;20524;-62
2023/01/11 00:47:55;;;;;;;9.57;9.07;;;;;;;-143.83;100.00;62900.06;5013447;28;20076;-62
2023/01/11 00:49:17;;;;;;;9.43;8.93;;;;;;;-143.83;100.00;62900.06;5027911;28;20387;-64
2023/01/11 00:51:42;;;;;;;8.90;8.50;;;;;;;-143.83;100.00;62900.06;5013863;28;20033;-62
2023/01/11 00:54:08;;;;;;;9.25;8.85;;;;;;;-143.83;100.00;62900.06;5014676;28;20025;-62
2023/01/11 00:56:34;;;;;;;9.60;9.10;;;;;;;-143.83;100.00;62900.06;5015917;28;20105;-62
2023/01/11 00:59:00;;;;;;;9.65;9.15;;;;;;;-143.83;100.00;62900.06;5014255;28;20053;-62
2023/01/11 01:01:26;;;;;;;9.80;9.30;;;;;;;-143.83;100.00;62900.06;5017039;28;20152;-62
2023/01/11 01:03:51;;;;;;;9.38;8.95;;;;;;;-143.83;100.00;62900.06;5013420;28;20029;-62
2023/01/11 01:06:17;;;;;;;8.90;8.50;;;;;;;-143.83;100.00;62900.06;5012169;28;20096;-61
2023/01/11 01:08:42;;;;;;;9.10;8.70;;;;;;;-143.83;100.00;62900.06;5012034;28;20092;-61
2023/01/11 01:11:08;;;;;;;9.35;8.90;;;;;;;-143.83;100.00;62900.06;5012870;28;20428;-62
2023/01/11 01:16:18;;;;;;;9.60;9.10;;;;;;;-143.83;100.00;62900.06;5012914;28;20035;-63
2023/01/11 01:18:43;;;;;;;9.23;8.82;;;;;;;-143.83;100.00;62900.06;5014228;28;20121;-62
2023/01/11 01:21:09;;;;;;;9.48;9.02;;;;;;;-143.83;100.00;62900.06;5011639;28;20358;-62
2023/01/11 01:23:34;;;;;;;9.57;9.13;;;;;;;-143.83;100.00;62900.06;5014110;28;20057;-61
2023/01/11 01:26:04;;;;;;;9.57;9.07;;;;;;;-143.83;100.00;62900.06;5013452;28;20026;-62
2023/01/11 01:28:29;;;;;;;9.00;8.60;;;;;;;-143.83;100.00;62900.06;5013668;28;20029;-63
2023/01/11 01:30:55;;;;;;;9.23;8.82;;;;;;;-143.83;100.00;62900.06;5013698;28;20034;-63
2023/01/11 01:33:21;;;;;;;9.23;8.82;;;;;;;-143.83;100.00;62900.06;5016641;28;20025;-63
2023/01/11 01:35:47;;;;;;;8.90;8.50;;;;;;;-143.83;100.00;62900.06;5011162;28;20161;-62
2023/01/11 01:38:13;;;;;;;9.38;8.95;;;;;;;-143.83;100.00;62900.06;5011614;28;20468;-62
2023/01/11 01:40:44;;;;;;;9.27;8.88;;;;;;;-143.83;100.00;62900.06;5013699;28;20029;-62
2023/01/11 01:43:14;;;;;;;9.80;9.30;;;;;;;-143.83;100.00;62900.06;5011502;28;20458;-61
2023/01/11 01:45:40;;;;;;;9.27;8.85;;;;;;;-143.83;100.00;62900.06;5013893;28;20029;-62
2023/01/11 01:48:10;;;;;;;9.18;8.77;;;;;;;-143.83;100.00;62900.06;5013319;28;20025;-62
2023/01/11 01:50:47;;;;;;;9.30;8.90;;;;;;;-143.83;100.00;62900.06;5013044;28;20485;-62
2023/01/11 01:53:50;;;;;;;9.23;8.82;;;;;;;-143.83;100.00;62900.06;5013217;28;20058;-62
2023/01/11 01:56:30;;;;;;;9.23;8.82;;;;;;;-143.83;100.00;62900.06;4989665;28;20038;-62
2023/01/11 01:59:07;;;;;;;9.35;8.95;;;;;;;-143.83;100.00;62900.06;5009870;28;20044;-62
2023/01/11 02:01:48;;;;;;;9.02;8.63;;;;;;;-143.83;100.00;62900.06;5005522;28;20057;-64
2023/01/11 02:04:26;;;;;;;9.25;8.85;;;;;;;-143.83;100.00;62900.06;5011313;28;20026;-61
2023/01/11 02:06:57;;;;;;;9.63;9.13;;;;;;;-143.83;100.00;62900.06;5011745;28;20029;-62
2023/01/11 02:09:39;;;;;;;9.20;8.80;;;;;;;-143.83;100.00;62900.06;5013734;28;20394;-62
2023/01/11 02:12:06;;;;;;;9.93;9.40;;;;;;;-143.83;100.00;62900.06;5010206;28;20390;-63
2023/01/11 02:14:33;;;;;;;8.90;8.50;;;;;;;-143.83;100.00;62900.06;5013143;28;20041;-61
2023/01/11 02:16:59;;;;;;;9.60;9.10;;;;;;;-143.83;100.00;62900.06;5012781;28;20381;-62
2023/01/11 02:19:34;;;;;;;9.40;9.00;;;;;;;-143.83;100.00;62900.06;5011601;28;20030;-62
2023/01/11 02:22:11;;;;;;;9.32;8.93;;;;;;;-143.83;100.00;62900.06;5012971;28;20440;-62
2023/01/11 02:24:55;;;;;;;9.30;8.90;;;;;;;-143.83;100.00;62900.06;5011680;28;20030;-62
2023/01/11 02:27:42;;;;;;;9.85;9.35;;;;;;;-143.83;100.00;62900.06;5011342;28;20037;-61
2023/01/11 02:30:20;;;;;;;9.10;8.70;;;;;;;-143.83;100.00;62900.06;5009183;28;20026;-62
2023/01/11 02:32:58;;;;;;;9.63;9.13;;;;;;;-143.83;100.00;62900.06;5007090;28;20076;-63
2023/01/11 02:35:44;;;;;;;9.30;8.90;;;;;;;-143.83;100.00;62900.06;5011951;28;20397;-61
2023/01/11 02:38:30;;;;;;;9.55;9.05;;;;;;;-143.83;100.00;62900.06;5011941;28;20030;-62
2023/01/11 02:41:08;;;;;;;9.15;8.75;;;;;;;-143.83;100.00;62900.06;5010227;28;20037;-62
2023/01/11 02:46:53;;;;;;;9.00;8.60;;;;;;;-143.83;100.00;62900.06;5005652;28;20500;-62
2023/01/11 02:49:30;;;;;;;9.02;8.63;;;;;;;-143.83;100.00;62900.06;5012775;28;20025;-61
2023/01/11 02:52:09;;;;;;;9.20;8.80;;;;;;;-143.83;100.00;62900.06;5009316;28;20040;-61
2023/01/11 02:54:37;;;;;;;9.38;8.95;;;;;;;-143.83;100.00;62900.06;5010729;28;20030;-62
2023/01/11 02:57:04;;;;;;;10.05;9.55;;;;;;;-143.83;100.00;62900.06;5010204;28;20029;-62
2023/01/11 02:59:35;;;;;;;9.13;8.73;;;;;;;-143.83;100.00;62900.06;5012651;28;20033;-62
2023/01/11 03:02:01;;;;;;;9.82;9.32;;;;;;;-143.83;100.00;62900.06;5010807;28;20037;-63
2023/01/11 03:04:31;;;;;;;9.30;8.90;;;;;;;-143.83;100.00;62900.06;5012617;28;20034;-62
2023/01/11 03:07:18;;;;;;;9.85;9.35;;;;;;;-143.83;100.00;62900.06;5010943;28;20022;-62
2023/01/11 03:10:05;;;;;;;9.25;8.85;;;;;;;-143.83;100.00;62900.06;5013607;28;20038;-63
2023/01/11 03:13:05;;;;;;;9.00;8.60;;;;;;;-143.83;100.00;62900.06;5008823;28;20104;-63
2023/01/11 03:15:30;;;;;;;9.32;8.90;;;;;;;-143.83;100.00;62900.06;5007676;28;20060;-61
2023/01/11 03:18:21;;;;;;;8.80;8.40;;;;;;;-143.83;100.00;62900.06;5011936;28;20061;-61
2023/01/11 03:21:00;;;;;;;9.35;8.95;;;;;;;-143.83;100.00;62900.06;5008758;28;20033;-62
2023/01/11 03:23:38;;;;;;;9.98;9.48;;;;;;;-143.83;100.00;62900.06;5010283;28;20429;-63
2023/01/11 03:26:25;;;;;;;9.77;9.27;;;;;;;-143.83;100.00;62900.06;5011262;28;20401;-62
2023/01/11 03:29:25;;;;;;;9.07;8.68;;;;;;;-143.83;100.00;62900.06;5011810;28;20118;-62
2023/01/11 03:32:23;;;;;;;9.18;8.77;;;;;;;-143.83;100.00;62900.06;5005080;28;20055;-63
2023/01/11 03:35:08;;;;;;;9.30;8.90;;;;;;;-143.83;100.00;62900.06;5006210;28;20401;-62
2023/01/11 03:37:40;;;;;;;9.00;8.60;;;;;;;-143.83;100.00;62900.06;5010993;28;20034;-62
2023/01/11 03:40:08;;;;;;;9.68;9.18;;;;;;;-143.83;100.00;62900.06;5011490;28;20063;-60
2023/01/11 03:43:09;;;;;;;9.27;8.88;;;;;;;-143.83;100.00;62900.06;5010625;28;20394;-61
2023/01/11 03:45:25;;;;;;;9.35;8.90;;;;;;;-143.83;100.00;62900.06;5010011;28;20508;-62
2023/01/11 03:47:54;;;;;;;9.50;9.00;;;;;;;-143.83;100.00;62900.06;5008586;28;20022;-61
2023/01/11 03:50:21;;;;;;;9.77;9.27;;;;;;;-143.83;100.00;62900.06;5012280;28;20026;-62
2023/01/11 03:52:48;;;;;;;9.02;8.63;;;;;;;-143.83;100.00;62900.06;5011719;28;20374;-62
2023/01/11 03:55:16;;;;;;;9.60;9.10;;;;;;;-143.83;100.00;62900.06;5011948;28;20621;-63
2023/01/11 03:57:50;;;;;;;9.52;9.07;;;;;;;-143.83;100.00;62900.06;5010917;28;20061;-63
2023/01/11 04:00:18;;;;;;;9.48;9.05;;;;;;;-143.83;100.00;62900.06;5011071;28;20502;-63
2023/01/11 04:02:43;;;;;;;9.52;9.02;;;;;;;-143.83;100.00;62900.06;5008626;28;20037;-63
2023/01/11 04:05:10;;;;;;;10.55;9.95;;;;;;;-143.83;100.00;62900.06;5008192;28;20025;-63
2023/01/11 04:07:35;;;;;;;9.30;8.90;;;;;;;-143.83;100.00;62900.06;5006249;28;20036;-62
2023/01/11 04:10:01;;;;;;;10.07;9.57;;;;;;;-143.83;100.00;62900.06;5011574;28;20105;-63
2023/01/11 04:12:27;;;;;;;9.60;9.10;;;;;;;-143.83;100.00;62900.06;5011274;28;20057;-62
2023/01/11 04:14:52;;;;;;;9.68;9.18;;;;;;;-143.83;100.00;62900.06;5008803;28;20393;-62
2023/01/11 04:17:18;;;;;;;9.77;9.27;;;;;;;-143.83;100.00;62900.06;5010185;28;20026;-62
2023/01/11 04:19:43;;;;;;;9.52;9.07;;;;;;;-143.83;100.00;62900.06;5011357;28;20029;-62
2023/01/11 04:22:09;;;;;;;9.80;9.30;;;;;;;-143.83;100.00;62900.06;5011077;28;20029;-62
2023/01/11 04:24:34;;;;;;;9.52;9.13;;;;;;;-143.83;100.00;62900.06;5010595;28;20040;-62
2023/01/11 04:27:00;;;;;;;10.00;9.50;;;;;;;-143.83;100.00;62900.06;5010925;28;20018;-62
2023/01/11 04:29:25;;;;;;;9.52;9.05;;;;;;;-143.83;100.00;62900.06;5011452;28;20439;-63
2023/01/11 04:31:50;;;;;;;9.57;9.13;;;;;;;-143.83;100.00;62900.06;5009780;28;20434;-61
2023/01/11 04:34:16;;;;;;;9.32;8.93;;;;;;;-143.83;100.00;62900.06;5010957;28;20068;-62
2023/01/11 04:36:42;;;;;;;9.85;9.35;;;;;;;-143.83;100.00;62900.06;5011038;28;20037;-62
2023/01/11 04:39:09;;;;;;;11.07;10.48;;;;;;;-143.83;100.00;62900.06;5009658;28;20052;-62
2023/01/11 04:44:22;;;;;;;9.75;9.25;;;;;;;-143.83;100.00;62900.06;5011404;28;20057;-62
2023/01/11 04:46:48;;;;;;;9.77;9.27;;;;;;;-143.83;100.00;62900.06;5005798;28;20481;-62
2023/01/11 04:49:14;;;;;;;11.10;10.48;;;;;;;-143.83;100.00;62900.06;5008405;28;20042;-63
2023/01/11 04:51:39;;;;;;;10.15;9.65;;;;;;;-143.83;100.00;62900.06;5014629;28;20473;-62
2023/01/11 04:54:05;;;;;;;11.18;10.52;;;;;;;-143.83;100.00;62900.06;5014143;28;20030;-62
2023/01/11 04:56:31;;;;;;;9.82;9.32;;;;;;;-143.83;100.00;62900.06;5014717;28;20116;-61
2023/01/11 04:58:57;;;;;;;10.50;9.93;;;;;;;-143.83;100.00;62900.06;5013926;28;20033;-63
2023/01/11 05:01:22;;;;;;;10.10;9.60;;;;;;;-143.83;100.00;62900.06;5013629;28;20062;-63
2023/01/11 05:03:48;;;;;;;10.13;9.63;;;;;;;-143.83;100.00;62900.06;5009245;28;20038;-61
2023/01/11 05:06:14;;;;;;;10.25;9.75;;;;;;;-143.83;100.00;62900.06;5008810;28;20029;-63
2023/01/11 05:08:45;;;;;;;9.90;9.40;;;;;;;-143.83;100.00;62900.06;5016614;28;20531;-63
2023/01/11 05:11:10;;;;;;;9.35;8.95;;;;;;;-143.83;100.00;62900.06;5012182;28;20037;-62
2023/01/11 05:13:41;;;;;;;9.70;9.20;;;;;;;-143.83;100.00;62900.06;5014039;28;20040;-61
2023/01/11 05:16:24;;;;;;;9.98;9.48;;;;;;;-143.83;100.00;62900.06;5013769;28;20103;-63
2023/01/11 05:18:52;;;;;;;10.10;9.60;;;;;;;-143.83;100.00;62900.06;5010768;28;20108;-63
2023/01/11 05:21:20;;;;;;;10.25;9.75;;;;;;;-143.83;100.00;62900.06;5011833;28;20029;-62
2023/01/11 05:23:46;;;;;;;9.25;8.85;;;;;;;-143.83;100.00;62900.06;5010904;28;20467;-62
2023/01/11 05:26:16;;;;;;;10.13;9.63;;;;;;;-143.83;100.00;62900.06;5013565;28;20129;-62
2023/01/11 05:28:42;;;;;;;9.82;9.32;;;;;;;-143.83;100.00;62900.06;5013303;28;20017;-63
2023/01/11 05:31:07;;;;;;;10.50;9.95;;;;;;;-143.83;100.00;62900.06;5009057;28;20048;-62
2023/01/11 05:33:33;;;;;;;11.27;10.63;;;;;;;-143.83;100.00;62900.06;5013208;28;20142;-62
2023/01/11 05:36:04;;;;;;;11.23;10.52;;;;;;;-143.83;100.00;62900.06;5011210;28;20045;-62
2023/01/11 05:38:30;;;;;;;9.90;9.40;;;;;;;-143.83;100.00;62900.06;5013494;28;20032;-63
2023/01/11 05:40:58;;;;;;;11.27;10.68;;;;;;;-143.83;100.00;62900.06;5012868;28;20052;-61
2023/01/11 05:43:24;;;;;;;10.55;9.95;;;;;;;-143.83;100.00;62900.06;5013164;28;20037;-62
2023/01/11 05:45:50;;;;;;;9.70;9.20;;;;;;;-143.83;100.00;62900.06;5013667;28;20041;-63
2023/01/11 05:48:16;;;;;;;10.77;10.18;;;;;;;-143.83;100.00;62900.06;5011785;28;20445;-62
2023/01/11 05:50:42;;;;;;;9.80;9.30;;;;;;;-143.83;100.00;62900.06;5012820;28;20489;-62
2023/01/11 05:53:07;;;;;;;10.05;9.55;;;;;;;-143.83;100.00;62900.06;5010624;28;20025;-62
2023/01/11 05:55:33;;;;;;;10.80;10.20;;;;;;;-143.83;100.00;62900.06;5012855;28;20038;-62
2023/01/11 05:57:58;;;;;;;10.35;9.77;;;;;;;-143.83;100.00;62900.06;5009247;28;20030;-60
2023/01/11 06:00:24;;;;;;;9.80;9.30;;;;;;;-143.83;100.00;62900.06;5009758;28;20054;-62
2023/01/11 06:02:50;;;;;;;9.93;9.43;;;;;;;-143.83;100.00;62900.06;5011527;28;20108;-63
2023/01/11 06:05:15;;;;;;;10.15;9.65;;;;;;;-143.83;100.00;62900.06;5010213;28;20409;-63
2023/01/11 06:07:41;;;;;;;10.75;10.15;;;;;;;-143.83;100.00;62900.06;5009534;28;20473;-64
2023/01/11 06:10:08;;;;;;;10.02;9.52;;;;;;;-143.83;100.00;62900.06;5005045;28;20105;-63
2023/01/11 06:12:33;;;;;;;10.52;9.95;;;;;;;-143.83;100.00;62900.06;5012703;28;20584;-61
2023/01/11 06:14:59;;;;;;;10.52;9.93;;;;;;;-143.83;100.00;62900.06;5012314;28;20109;-62
2023/01/11 06:17:24;;;;;;;9.77;9.27;;;;;;;-143.83;100.00;62900.06;5012263;28;20469;-62
2023/01/11 06:19:50;;;;;;;9.60;9.15;;;;;;;-143.83;100.00;62900.06;5012735;28;20478;-63
2023/01/11 06:22:15;;;;;;;9.32;8.93;;;;;;;-143.83;100.00;62900.06;5012635;28;20485;-61
2023/01/11 06:24:41;;;;;;;10.18;9.68;;;;;;;-143.83;100.00;62900.06;5011808;28;20065;-62
2023/01/11 06:27:06;;;;;;;10.25;9.73;;;;;;;-143.83;100.00;62900.06;5010498;28;20053;-61
2023/01/11 06:29:31;;;;;;;10.40;9.85;;;;;;;-143.83;100.00;62900.06;5012448;28;20033;-63
2023/01/11 06:31:57;;;;;;;9.63;9.20;;;;;;;-143.83;100.00;62900.06;5011794;28;20108;-63
2023/01/11 06:34:23;;;;;;;9.88;9.38;;;;;;;-143.83;100.00;62900.06;5012675;28;20093;-62
2023/01/11 06:36:48;;;;;;;10.10;9.60;;;;;;;-143.83;100.00;62900.06;5010233;28;20052;-62
2023/01/11 06:39:13;;;;;;;10.43;9.88;;;;;;;-143.83;100.00;62900.06;5012451;28;20026;-63
2023/01/11 06:41:39;;;;;;;9.85;9.35;;;;;;;-143.83;100.00;62900.06;5011216;28;20560;-62
2023/01/11 06:44:05;;;;;;;11.07;10.48;;;;;;;-143.83;100.00;62900.06;5012385;28;20452;-62
2023/01/11 06:46:30;;;;;;;11.00;10.40;;;;;;;-143.83;100.00;62900.06;5010112;28;20431;-61
2023/01/11 06:48:56;;;;;;;11.40;10.70;;;;;;;-143.83;100.00;62900.06;5010887;28;20026;-63
2023/01/11 06:51:22;;;;;;;10.60;10.00;;;;;;;-143.83;100.00;62900.06;5010778;28;20042;-61
2023/01/11 06:53:47;;;;;;;10.25;9.75;;;;;;;-143.83;100.00;62900.06;5008218;28;20022;-62
2023/01/11 06:56:15;;;;;;;9.85;9.35;;;;;;;-143.83;100.00;62900.06;5011816;28;20025;-63
2023/01/11 06:58:41;;;;;;;10.48;9.88;;;;;;;-143.83;100.00;62900.06;5009685;28;20026;-62
2023/01/11 07:01:06;;;;;;;10.15;9.65;;;;;;;-143.83;100.00;62900.06;5012004;28;20083;-62
2023/01/11 07:03:33;;;;;;;10.43;9.82;;;;;;;-143.83;100.00;62900.06;5010877;28;20046;-62
2023/01/11 07:06:00;;;;;;;10.73;10.13;;;;;;;-143.83;100.00;62900.06;5004588;28;20125;-62
2023/01/11 07:08:26;;;;;;;10.30;9.80;;;;;;;-143.83;100.00;62900.06;5012885;28;20045;-63
2023/01/11 07:10:53;;;;;;;10.95;10.35;;;;;;;-143.83;100.00;62900.06;5009606;28;20525;-63
2023/01/11 07:13:18;;;;;;;10.55;9.95;;;;;;;-143.83;100.00;62900.06;5008834;28;20022;-63
2023/01/11 07:15:47;;;;;;;10.07;9.57;;;;;;;-143.83;100.00;62900.06;5011073;28;20587;-63
2023/01/11 07:18:13;;;;;;;9.95;9.45;;;;;;;-143.83;100.00;62900.06;5021722;28;20038;-61
2023/01/11 07:20:39;;;;;;;10.82;10.23;;;;;;;-143.83;100.00;62900.06;5010339;28;20026;-61
2023/01/11 07:23:06;;;;;;;10.07;9.57;;;;;;;-143.83;100.00;62900.06;5009391;28;20572;-62
2023/01/11 07:25:32;;;;;;;9.80;9.30;;;;;;;-143.83;100.00;62900.06;5011840;28;20068;-62
2023/01/11 07:27:59;;;;;;;10.00;9.50;;;;;;;-143.83;100.00;62900.06;5010441;28;20041;-62
2023/01/11 07:30:27;;;;;;;10.05;9.55;;;;;;;-143.83;100.00;62900.06;5011784;28;20029;-62
2023/01/11 07:32:53;;;;;;;9.75;9.25;;;;;;;-143.83;100.00;62900.06;5004496;28;20515;-62
2023/01/11 07:35:19;;;;;;;9.57;9.13;;;;;;;-143.83;100.00;62900.06;5001763;28;20041;-62
2023/01/11 07:37:44;;;;;;;10.75;10.15;;;;;;;-143.83;100.00;62900.06;5008570;28;20022;-61
2023/01/11 07:40:11;;;;;;;9.98;9.48;;;;;;;-143.83;100.00;62900.06;5012008;28;20460;-62
2023/01/11 07:45:21;;;;;;;9.27;8.88;;;;;;;-143.83;100.00;62900.06;5010170;28;20028;-62
2023/01/11 07:47:50;;;;;;;9.90;9.40;;;;;;;-143.83;100.00;62900.06;5011937;28;20385;-62
2023/01/11 07:50:16;;;;;;;11.70;10.95;;;;;;;-143.83;100.00;62900.06;5004476;28;20064;-63
2023/01/11 07:52:48;;;;;;;9.57;9.07;;;;;;;-143.83;100.00;62900.06;5004182;28;20041;-62
2023/01/11 07:55:15;;;;;;;10.18;9.68;;;;;;;-143.83;100.00;62900.06;5003115;28;20026;-63
2023/01/11 07:57:40;;;;;;;10.48;9.93;;;;;;;-143.83;100.00;62900.06;5006547;28;20037;-64
2023/01/11 08:00:07;;;;;;;10.88;10.27;;;;;;;-143.83;100.00;62900.06;5008481;28;20046;-64
2023/01/11 08:02:32;;;;;;;11.18;10.55;;;;;;;-143.83;100.00;62900.06;5004674;28;20088;-65
2023/01/11 08:04:58;;;;;;;10.20;9.70;;;;;;;-143.83;100.00;62900.06;5008471;28;20459;-63
2023/01/11 08:07:23;;;;;;;10.30;9.80;;;;;;;-143.83;100.00;62900.06;5009375;28;20092;-64
2023/01/11 08:09:48;;;;;;;9.73;9.23;;;;;;;-143.83;100.00;62900.06;5009882;28;20034;-63
2023/01/11 08:14:58;;;;;;;9.85;9.35;;;;;;;-143.83;100.00;62900.06;5009200;28;20076;-63
2023/01/11 08:17:23;;;;;;;10.55;10.00;;;;;;;-143.83;100.00;62900.06;5003715;28;20072;-62
2023/01/11 08:19:49;;;;;;;10.00;9.50;;;;;;;-143.83;100.00;62900.06;5007679;28;20488;-64
2023/01/11 08:22:16;;;;;;;11.07;10.48;;;;;;;-143.83;100.00;62900.06;5008763;28;20026;-65
2023/01/11 08:24:41;;;;;;;9.90;9.40;;;;;;;-143.83;100.00;62900.06;5011200;28;20025;-64
2023/01/11 08:27:07;;;;;;;10.05;9.55;;;;;;;-143.83;100.00;62900.06;5013609;28;20021;-64
2023/01/11 08:29:32;;;;;;;10.18;9.68;;;;;;;-143.83;100.00;62900.06;5010616;28;20470;-64
2023/01/11 08:31:59;;;;;;;10.93;10.32;;;;;;;-143.83;100.00;62900.06;5008638;28;20527;-64
2023/01/11 08:34:27;;;;;;;10.05;9.55;;;;;;;-143.83;100.00;62900.06;5012605;28;20077;-64
2023/01/11 08:36:55;;;;;;;10.13;9.63;;;;;;;-143.83;100.00;62900.06;5008417;28;20117;-64
2023/01/11 08:39:21;;;;;;;10.30;9.75;;;;;;;-143.83;100.00;62900.06;5011009;28;20065;-62
2023/01/11 08:41:46;;;;;;;9.52;9.10;;;;;;;-143.83;100.00;62900.06;5016814;28;20065;-63
2023/01/11 08:44:12;;;;;;;10.10;9.60;;;;;;;-143.83;100.00;62900.06;5012424;28;20033;-63
2023/01/11 08:46:37;;;;;;;10.70;10.10;;;;;;;-143.83;100.00;62900.06;5005231;28;20400;-63
2023/01/11 08:49:09;;;;;;;10.40;9.88;;;;;;;-143.83;100.00;62900.06;5013461;28;20014;-64
2023/01/11 08:51:35;;;;;;;11.25;10.55;;;;;;;-143.83;100.00;62900.06;5009765;28;20073;-63
2023/01/11 08:54:01;;;;;;;10.23;9.73;;;;;;;-143.83;100.00;62900.06;5013151;28;20037;-66
2023/01/11 08:56:26;;;;;;;10.75;10.15;;;;;;;-143.83;100.00;62900.06;5016499;28;20053;-63
2023/01/11 08:58:52;;;;;;;10.20;9.70;;;;;;;-143.83;100.00;62900.06;5012468;28;20038;-62
2023/01/11 09:01:17;;;;;;;10.10;9.60;;;;;;;-143.83;100.00;62900.06;5008877;28;20099;-62
2023/01/11 09:03:42;;;;;;;10.50;9.90;;;;;;;-143.83;100.00;62900.06;5010796;28;20032;-63
2023/01/11 09:06:08;;;;;;;10.57;9.98;;;;;;;-143.83;100.00;62900.06;5007239;28;20129;-62
2023/01/11 09:08:33;;;;;;;10.50;9.90;;;;;;;-143.83;100.00;62900.06;5011019;28;20022;-63
2023/01/11 09:10:59;;;;;;;10.43;9.82;;;;;;;-143.83;100.00;62900.06;5011694;28;20038;-64
2023/01/11 09:13:25;;;;;;;10.35;9.80;;;;;;;-143.83;100.00;62900.06;5010494;28;20133;-64
2023/01/11 09:15:57;;;;;;;10.18;9.65;;;;;;;-143.83;100.00;62900.06;5008443;28;20108;-64
2023/01/11 09:18:25;;;;;;;11.15;10.52;;;;;;;-143.83;100.00;62900.06;5011571;28;20018;-64
2023/01/11 09:20:52;;;;;;;10.02;9.52;;;;;;;-143.83;100.00;62900.06;5013218;28;20034;-65
2023/01/11 09:23:17;;;;;;;9.88;9.38;;;;;;;-143.83;100.00;62900.06;5010780;28;20037;-64
2023/01/11 09:25:43;;;;;;;9.82;9.32;;;;;;;-143.83;100.00;62900.06;5010121;28;20022;-65
2023/01/11 09:28:08;;;;;;;10.27;9.73;;;;;;;-143.83;100.00;62900.06;5009843;28;20026;-62
2023/01/11 09:30:34;;;;;;;10.75;10.15;;;;;;;-143.83;100.00;62900.06;5013101;28;20072;-66
2023/01/11 09:32:59;;;;;;;11.05;10.43;;;;;;;-143.83;100.00;62900.06;5003822;28;20528;-65
2023/01/11 09:35:25;;;;;;;10.48;9.88;;;;;;;-143.83;100.00;62900.06;5008967;28;20068;-66
2023/01/11 09:37:54;;;;;;;12.23;11.43;;;;;;;-143.83;100.00;62900.06;5012395;28;20124;-65
2023/01/11 09:40:29;;;;;;;11.27;10.57;;;;;;;-143.83;100.00;62900.06;5009499;28;20030;-66
2023/01/11 09:43:00;;;;;;;11.55;10.85;;;;;;;-143.83;100.00;62900.06;5009946;28;20061;-67
2023/01/11 09:45:29;;;;;;;10.98;10.38;;;;;;;-143.83;100.00;62900.06;5009944;28;20064;-66
2023/01/11 09:48:20;;;;;;;10.07;9.57;;;;;;;-143.83;100.00;62900.06;5013088;28;20101;-65
2023/01/11 09:50:47;;;;;;;10.95;10.35;;;;;;;-143.83;100.00;62900.06;5012644;28;20044;-66
2023/01/11 09:53:30;;;;;;;10.45;9.85;;;;;;;-143.83;100.00;62900.06;5011492;28;20542;-65
2023/01/11 09:55:58;;;;;;;10.80;10.20;;;;;;;-143.83;100.00;62900.06;5011047;28;20525;-65
2023/01/11 09:58:44;;;;;;;11.18;10.55;;;;;;;-143.83;100.00;62900.06;5012522;28;20048;-67
2023/01/11 10:01:23;;;;;;;10.73;10.13;;;;;;;-143.83;100.00;62900.06;5011164;28;20076;-67
2023/01/11 10:04:05;;;;;;;10.25;9.75;;;;;;;-143.83;100.00;62900.06;5011833;28;20333;-67
2023/01/11 10:06:33;;;;;;;10.27;9.75;;;;;;;-143.83;100.00;62900.06;5010259;28;21569;-67
2023/01/11 10:09:17;;;;;;;9.75;9.25;;;;;;;-143.83;100.00;62900.06;5012619;28;20053;-66
2023/01/11 10:12:30;;;;;;;9.40;9.00;;;;;;;-143.83;100.00;62900.06;5009523;28;20092;-67
2023/01/11 10:15:03;;;;;;;9.50;9.05;;;;;;;-143.83;100.00;62900.06;5011320;28;20033;-65
2023/01/11 10:17:48;;;;;;;9.75;9.25;;;;;;;-143.83;100.00;62900.06;5010908;28;20030;-67
2023/01/11 10:20:23;;;;;;;9.63;9.13;;;;;;;-143.83;100.00;62900.06;5011532;28;20026;-67
2023/01/11 10:22:55;;;;;;;9.10;8.70;;;;;;;-143.83;100.00;62900.06;5009201;28;20041;-65
2023/01/11 10:25:33;;;;;;;9.60;9.10;;;;;;;-143.83;100.00;62900.06;5011842;28;20022;-67
2023/01/11 10:28:05;;;;;;;9.65;9.15;;;;;;;-143.83;100.00;62900.06;5011723;28;20100;-63
2023/01/11 10:30:47;;;;;;;11.43;10.73;;;;;;;-143.83;100.00;62900.06;5004381;28;20022;-63
2023/01/11 10:33:45;;;;;;;10.05;9.52;;;;;;;-143.83;100.00;62900.06;5009586;28;20033;-63
2023/01/11 10:39:54;;;;;;;9.70;9.20;;;;;;;-143.83;100.00;62900.06;4976346;28;20049;-63
2023/01/11 10:42:27;;;;;;;10.77;10.18;;;;;;;-143.83;100.00;62900.06;5008928;28;20032;-62
2023/01/11 10:45:19;;;;;;;10.93;10.27;;;;;;;-143.83;100.00;62900.06;5007409;28;20041;-61
2023/01/11 10:47:56;;;;;;;9.95;9.45;;;;;;;-143.83;100.00;62900.06;5002114;28;20037;-63
2023/01/11 10:50:30;;;;;;;9.35;8.93;;;;;;;-143.83;100.00;62900.06;5010628;28;20466;-64
2023/01/11 10:53:34;;;;;;;9.57;9.07;;;;;;;-143.83;100.00;62900.06;5010547;28;20025;-65
2023/01/11 10:56:24;;;;;;;9.75;9.25;;;;;;;-143.83;100.00;62900.06;4976970;28;20057;-63
2023/01/11 10:59:14;;;;;;;10.60;10.00;;;;;;;-143.83;100.00;62900.06;5008953;28;20096;-64
2023/01/11 11:02:01;;;;;;;9.88;9.38;;;;;;;-143.83;100.00;62900.06;5012911;28;20107;-63
2023/01/11 11:04:32;;;;;;;9.77;9.27;;;;;;;-143.83;100.00;62900.06;5011404;28;20095;-64
2023/01/11 11:07:22;;;;;;;10.70;10.10;;;;;;;-143.83;100.00;62900.06;5009059;28;20492;-63
2023/01/11 11:10:01;;;;;;;9.70;9.20;;;;;;;-143.83;100.00;62900.06;5009885;28;20030;-61
2023/01/11 11:12:51;;;;;;;9.65;9.15;;;;;;;-143.83;100.00;62900.06;5011203;28;20030;-62
2023/01/11 11:15:26;;;;;;;10.35;9.82;;;;;;;-143.83;100.00;62900.06;5006923;28;20038;-64
2023/01/11 11:17:53;;;;;;;9.80;9.30;;;;;;;-143.83;100.00;62900.06;5009679;28;20025;-62
2023/01/11 11:20:21;;;;;;;10.57;9.98;;;;;;;-143.83;100.00;62900.06;5011093;28;20120;-62
2023/01/11 11:22:52;;;;;;;10.40;9.82;;;;;;;-143.83;100.00;62900.06;5007795;28;20062;-63
2023/01/11 11:25:28;;;;;;;10.77;10.18;;;;;;;-143.83;100.00;62900.06;5009336;28;20053;-64
2023/01/11 11:28:06;;;;;;;9.90;9.40;;;;;;;-143.83;100.00;62900.06;5007787;28;20073;-65
2023/01/11 11:30:42;;;;;;;9.80;9.30;;;;;;;-143.83;100.00;62900.06;5007736;28;20069;-64
2023/01/11 11:33:39;;;;;;;10.85;10.25;;;;;;;-143.83;100.00;62900.06;5007498;28;20056;-63
2023/01/11 11:36:07;;;;;;;10.05;9.55;;;;;;;-143.83;100.00;62900.06;5010288;28;20026;-63
2023/01/11 11:38:43;;;;;;;10.43;9.82;;;;;;;-143.83;100.00;62900.06;5007118;28;20034;-62
2023/01/11 11:41:17;;;;;;;9.82;9.32;;;;;;;-143.83;100.00;62900.06;5010478;28;20025;-64
2023/01/11 11:43:44;;;;;;;;;;;;;;;-143.83;100.00;62900.06;5010994;28;20690;-63
2023/01/11 11:46:13;;;;;;;10.05;9.55;;;;;;;-143.83;100.00;62900.06;5007569;28;19914;-63